Time;durP1;ratioP1;P1;durP2;ratioP2;P2;SDS_P1;SDS_P2;PMS_P1;PMS_P2;Temp;Humidity;BMP_temperature;BMP_pressure;BME280_temperature;BME280_humidity;BME280_pressure;Samples;Min_cycle;Max_cycle;Signal;HPM_P1;HPM_P2
2021/04/22 00:00:17;;;;;;;12.88;7.55;;;;;;;;;;4898900;29;20108;-67
2021/04/22 00:02:43;;;;;;;9.07;7.10;;;;;;;;;;4898474;29;20111;-65
2021/04/22 00:05:17;;;;;;;9.57;6.60;;;;;;;;;;4898802;29;20036;-67
2021/04/22 00:07:43;;;;;;;11.18;7.15;;;;;;;;;;4898677;29;20029;-68
2021/04/22 00:10:11;;;;;;;10.48;6.78;;;;;;;;;;4898791;29;20036;-66
2021/04/22 00:12:37;;;;;;;9.98;6.90;;;;;;;;;;4898451;29;20025;-66
2021/04/22 00:15:05;;;;;;;10.40;7.15;;;;;;;;;;4898568;29;20107;-68
2021/04/22 00:17:31;;;;;;;10.70;7.22;;;;;;;;;;4898235;29;20033;-66
2021/04/22 00:19:57;;;;;;;9.23;6.68;;;;;;;;;;4898431;29;20020;-67
2021/04/22 00:22:23;;;;;;;9.20;6.95;;;;;;;;;;4898359;29;20039;-68
2021/04/22 00:24:49;;;;;;;9.07;6.68;;;;;;;;;;4898224;29;20088;-68
2021/04/22 00:27:15;;;;;;;9.30;6.25;;;;;;;;;;4898172;29;20028;-68
2021/04/22 00:29:41;;;;;;;9.40;6.57;;;;;;;;;;4898115;29;20067;-67
2021/04/22 00:32:07;;;;;;;9.80;7.35;;;;;;;;;;4897898;29;20056;-68
2021/04/22 00:34:33;;;;;;;10.43;7.13;;;;;;;;;;4898159;29;20029;-68
2021/04/22 00:36:59;;;;;;;9.18;6.65;;;;;;;;;;4898045;29;20041;-68
2021/04/22 00:39:25;;;;;;;9.75;6.93;;;;;;;;;;4898015;29;20116;-67
2021/04/22 00:41:51;;;;;;;10.48;7.28;;;;;;;;;;4898056;29;20044;-66
2021/04/22 00:44:17;;;;;;;11.23;7.00;;;;;;;;;;4897827;29;20039;-66
2021/04/22 00:46:44;;;;;;;11.00;7.40;;;;;;;;;;4897856;29;20035;-67
2021/04/22 00:49:10;;;;;;;10.50;7.30;;;;;;;;;;4898050;29;20116;-68
2021/04/22 00:51:36;;;;;;;11.32;6.95;;;;;;;;;;4898030;29;20024;-66
2021/04/22 00:54:02;;;;;;;10.38;7.20;;;;;;;;;;4898021;29;20052;-67
2021/04/22 00:56:28;;;;;;;11.05;7.30;;;;;;;;;;4897685;29;20089;-67
2021/04/22 00:58:54;;;;;;;10.55;7.40;;;;;;;;;;4897892;29;20037;-67
2021/04/22 01:01:20;;;;;;;9.20;6.97;;;;;;;;;;4897449;29;20040;-68
2021/04/22 01:03:47;;;;;;;10.23;7.55;;;;;;;;;;4896828;29;20036;-68
2021/04/22 01:06:13;;;;;;;10.90;7.47;;;;;;;;;;4897706;29;20039;-68
2021/04/22 01:08:39;;;;;;;8.93;6.78;;;;;;;;;;4897519;29;20032;-67
2021/04/22 01:11:06;;;;;;;12.40;7.32;;;;;;;;;;4898276;29;20092;-68
2021/04/22 01:13:32;;;;;;;9.45;6.95;;;;;;;;;;4899365;29;20016;-67
2021/04/22 01:15:59;;;;;;;9.93;7.20;;;;;;;;;;4897429;29;20720;-66
2021/04/22 01:18:25;;;;;;;11.27;7.60;;;;;;;;;;4897355;29;20028;-66
2021/04/22 01:20:52;;;;;;;10.52;7.05;;;;;;;;;;4897527;29;20031;-67
2021/04/22 01:23:18;;;;;;;9.77;6.78;;;;;;;;;;4897503;29;20119;-67
2021/04/22 01:25:46;;;;;;;10.10;7.07;;;;;;;;;;4897382;29;20115;-66
2021/04/22 01:28:13;;;;;;;12.20;7.70;;;;;;;;;;4897215;29;20084;-64
2021/04/22 01:30:46;;;;;;;11.30;7.35;;;;;;;;;;4897334;29;20032;-68
2021/04/22 01:33:14;;;;;;;11.20;7.18;;;;;;;;;;4896742;29;20091;-67
2021/04/22 01:35:41;;;;;;;11.82;7.35;;;;;;;;;;4897192;29;20446;-67
2021/04/22 01:38:08;;;;;;;11.70;7.90;;;;;;;;;;4896737;29;20029;-67
2021/04/22 01:40:35;;;;;;;12.18;7.57;;;;;;;;;;4896901;29;20064;-67
2021/04/22 01:43:01;;;;;;;11.20;7.95;;;;;;;;;;4897081;29;20115;-67
2021/04/22 01:45:27;;;;;;;10.85;7.60;;;;;;;;;;4897025;29;20032;-67
2021/04/22 01:47:53;;;;;;;13.00;7.13;;;;;;;;;;4897016;29;20040;-67
2021/04/22 01:50:21;;;;;;;14.15;7.45;;;;;;;;;;4897038;29;20021;-67
2021/04/22 01:52:47;;;;;;;12.52;7.80;;;;;;;;;;4896721;29;20033;-67
2021/04/22 01:55:17;;;;;;;11.35;7.65;;;;;;;;;;4896659;29;20590;-67
2021/04/22 01:57:43;;;;;;;12.60;7.75;;;;;;;;;;4896704;29;20040;-67
2021/04/22 02:00:14;;;;;;;10.50;7.47;;;;;;;;;;4896847;29;20043;-67
2021/04/22 02:02:41;;;;;;;11.60;7.78;;;;;;;;;;4896566;29;20036;-67
2021/04/22 02:05:07;;;;;;;13.85;8.30;;;;;;;;;;4890185;29;20021;-67
2021/04/22 02:07:34;;;;;;;11.75;7.38;;;;;;;;;;4888767;29;20052;-67
2021/04/22 02:10:00;;;;;;;12.48;8.38;;;;;;;;;;4893007;29;20036;-67
2021/04/22 02:12:26;;;;;;;11.85;8.38;;;;;;;;;;4896351;29;20103;-68
2021/04/22 02:14:52;;;;;;;14.43;8.55;;;;;;;;;;4896388;29;20493;-67
2021/04/22 02:17:18;;;;;;;17.35;8.57;;;;;;;;;;4896279;29;20039;-67
2021/04/22 02:19:44;;;;;;;12.48;7.95;;;;;;;;;;4896189;29;20032;-67
2021/04/22 02:22:10;;;;;;;13.98;8.88;;;;;;;;;;4896212;29;20120;-67
2021/04/22 02:24:36;;;;;;;13.18;8.52;;;;;;;;;;4895971;29;20028;-67
2021/04/22 02:27:02;;;;;;;13.55;8.30;;;;;;;;;;4896121;29;20032;-68
2021/04/22 02:29:28;;;;;;;14.05;7.95;;;;;;;;;;4896159;29;20512;-67
2021/04/22 02:31:54;;;;;;;13.52;8.55;;;;;;;;;;4895676;29;20054;-66
2021/04/22 02:34:20;;;;;;;13.00;8.55;;;;;;;;;;4896177;29;20064;-67
2021/04/22 02:36:46;;;;;;;12.68;8.82;;;;;;;;;;4896104;29;20045;-66
2021/04/22 02:39:13;;;;;;;13.10;8.18;;;;;;;;;;4896067;29;20028;-68
2021/04/22 02:41:39;;;;;;;17.45;9.10;;;;;;;;;;4896135;29;20438;-68
2021/04/22 02:44:05;;;;;;;18.65;9.20;;;;;;;;;;4896145;29;20033;-67
2021/04/22 02:46:31;;;;;;;13.68;8.63;;;;;;;;;;4895835;29;20037;-67
2021/04/22 02:48:57;;;;;;;15.02;9.15;;;;;;;;;;4896045;29;20084;-67
2021/04/22 02:51:23;;;;;;;13.23;8.80;;;;;;;;;;4895954;29;20088;-67
2021/04/22 02:53:49;;;;;;;13.95;8.95;;;;;;;;;;4896112;29;20028;-68
2021/04/22 02:56:15;;;;;;;12.55;8.77;;;;;;;;;;4896026;29;20321;-67
2021/04/22 02:58:41;;;;;;;12.57;8.70;;;;;;;;;;4895574;29;20457;-67
2021/04/22 03:01:07;;;;;;;17.10;10.77;;;;;;;;;;4895494;29;20473;-67
2021/04/22 03:03:33;;;;;;;15.77;10.70;;;;;;;;;;4895793;29;20047;-68
2021/04/22 03:05:59;;;;;;;15.63;10.07;;;;;;;;;;4895757;29;20037;-64
2021/04/22 03:08:25;;;;;;;13.45;8.98;;;;;;;;;;4895644;29;20096;-68
2021/04/22 03:10:52;;;;;;;12.07;8.90;;;;;;;;;;4895933;29;20055;-67
2021/04/22 03:13:18;;;;;;;13.85;8.65;;;;;;;;;;4894383;29;20032;-67
2021/04/22 03:15:44;;;;;;;12.05;8.15;;;;;;;;;;4895438;29;20041;-65
2021/04/22 03:18:11;;;;;;;13.10;8.57;;;;;;;;;;4896476;29;20052;-67
2021/04/22 03:20:38;;;;;;;13.60;9.30;;;;;;;;;;4899619;29;20116;-66
2021/04/22 03:23:04;;;;;;;12.98;8.80;;;;;;;;;;4899653;29;20037;-66
2021/04/22 03:25:30;;;;;;;12.32;7.97;;;;;;;;;;4899567;29;20088;-63
2021/04/22 03:27:56;;;;;;;13.60;8.63;;;;;;;;;;4899531;29;20055;-65
2021/04/22 03:30:24;;;;;;;14.65;8.30;;;;;;;;;;4899263;29;20025;-66
2021/04/22 03:32:51;;;;;;;12.45;8.10;;;;;;;;;;4898799;29;20052;-64
2021/04/22 03:35:17;;;;;;;16.20;8.02;;;;;;;;;;4899053;29;20513;-65
2021/04/22 03:37:43;;;;;;;14.40;8.18;;;;;;;;;;4897534;29;20417;-63
2021/04/22 03:40:11;;;;;;;12.88;8.40;;;;;;;;;;4899461;29;20025;-65
2021/04/22 03:42:37;;;;;;;16.45;9.45;;;;;;;;;;4899162;29;20064;-65
2021/04/22 03:45:04;;;;;;;14.95;8.57;;;;;;;;;;4898918;29;20037;-65
2021/04/22 03:47:30;;;;;;;15.13;8.95;;;;;;;;;;4899039;29;20521;-65
2021/04/22 03:49:56;;;;;;;13.00;8.65;;;;;;;;;;4899192;29;20085;-64
2021/04/22 03:52:22;;;;;;;15.55;8.80;;;;;;;;;;4898818;29;20481;-66
2021/04/22 03:54:48;;;;;;;15.63;9.27;;;;;;;;;;4898948;29;20473;-66
2021/04/22 03:57:15;;;;;;;13.52;8.25;;;;;;;;;;4898989;29;20652;-65
2021/04/22 03:59:41;;;;;;;18.70;8.45;;;;;;;;;;4898901;29;20032;-63
2021/04/22 04:02:07;;;;;;;10.60;7.63;;;;;;;;;;4898467;29;20060;-67
2021/04/22 04:04:33;;;;;;;14.00;7.88;;;;;;;;;;4898803;29;20024;-66
2021/04/22 04:06:59;;;;;;;10.88;7.00;;;;;;;;;;4898531;29;20037;-66
2021/04/22 04:09:25;;;;;;;15.20;8.18;;;;;;;;;;4898718;29;20557;-65
2021/04/22 04:11:51;;;;;;;15.27;8.02;;;;;;;;;;4898560;29;20508;-64
2021/04/22 04:14:17;;;;;;;13.38;7.68;;;;;;;;;;4898375;29;20080;-65
2021/04/22 04:16:43;;;;;;;11.93;7.47;;;;;;;;;;4898378;29;20127;-66
2021/04/22 04:19:10;;;;;;;12.90;7.78;;;;;;;;;;4897207;29;20449;-65
2021/04/22 04:21:36;;;;;;;13.68;7.38;;;;;;;;;;4898394;29;20481;-65
2021/04/22 04:24:02;;;;;;;14.85;7.55;;;;;;;;;;4898677;29;20033;-66
2021/04/22 04:26:28;;;;;;;15.98;7.78;;;;;;;;;;4898254;29;20029;-66
2021/04/22 04:28:54;;;;;;;18.25;8.25;;;;;;;;;;4898256;29;20029;-66
2021/04/22 04:31:20;;;;;;;14.98;7.70;;;;;;;;;;4897423;29;20028;-65
2021/04/22 04:33:47;;;;;;;16.05;9.10;;;;;;;;;;4896995;29;20528;-65
2021/04/22 04:36:13;;;;;;;18.35;8.50;;;;;;;;;;4880560;29;20083;-67
2021/04/22 04:38:39;;;;;;;16.52;8.50;;;;;;;;;;4897974;29;20491;-66
2021/04/22 04:41:05;;;;;;;14.40;8.88;;;;;;;;;;4898147;29;20073;-62
2021/04/22 04:43:31;;;;;;;16.13;8.35;;;;;;;;;;4897863;29;20111;-66
2021/04/22 04:45:57;;;;;;;15.13;7.30;;;;;;;;;;4897821;29;20035;-67
2021/04/22 04:48:24;;;;;;;12.68;7.82;;;;;;;;;;4897895;29;20025;-67
2021/04/22 04:50:50;;;;;;;13.10;7.47;;;;;;;;;;4897578;29;20037;-63
2021/04/22 04:53:16;;;;;;;13.15;8.00;;;;;;;;;;4897971;29;20056;-66
2021/04/22 04:55:42;;;;;;;16.23;8.93;;;;;;;;;;4897627;29;20037;-62
2021/04/22 04:58:08;;;;;;;24.92;13.35;;;;;;;;;;4897523;29;20029;-63
2021/04/22 05:00:34;;;;;;;21.40;10.10;;;;;;;;;;4897531;29;20051;-65
2021/04/22 05:03:00;;;;;;;19.00;9.57;;;;;;;;;;4897326;29;20115;-66
2021/04/22 05:05:26;;;;;;;17.33;10.07;;;;;;;;;;4897563;29;20036;-67
2021/04/22 05:07:52;;;;;;;16.65;9.90;;;;;;;;;;4880184;29;20486;-65
2021/04/22 05:10:18;;;;;;;19.90;10.25;;;;;;;;;;4897709;29;20418;-67
2021/04/22 05:12:44;;;;;;;19.25;11.38;;;;;;;;;;4897321;29;20481;-64
2021/04/22 05:15:11;;;;;;;21.90;12.02;;;;;;;;;;4897072;29;20032;-69
2021/04/22 05:17:37;;;;;;;20.63;11.82;;;;;;;;;;4897217;29;20051;-67
2021/04/22 05:20:05;;;;;;;20.00;10.85;;;;;;;;;;4897116;29;20107;-68
2021/04/22 05:22:31;;;;;;;22.00;9.60;;;;;;;;;;4897441;29;20032;-68
2021/04/22 05:24:57;;;;;;;18.38;9.73;;;;;;;;;;4897103;29;20421;-68
2021/04/22 05:27:23;;;;;;;21.48;10.48;;;;;;;;;;4897094;29;20111;-68
2021/04/22 05:29:49;;;;;;;48.60;14.90;;;;;;;;;;4879622;29;20096;-68
2021/04/22 05:32:15;;;;;;;39.42;14.70;;;;;;;;;;4896593;29;20052;-68
2021/04/22 05:34:42;;;;;;;29.45;12.02;;;;;;;;;;4897057;29;20036;-64
2021/04/22 05:37:08;;;;;;;37.35;12.65;;;;;;;;;;4896388;29;20043;-69
2021/04/22 05:39:34;;;;;;;36.65;13.55;;;;;;;;;;4896988;29;20108;-69
2021/04/22 05:42:00;;;;;;;27.38;13.55;;;;;;;;;;4895783;29;20116;-67
2021/04/22 05:44:27;;;;;;;34.90;15.65;;;;;;;;;;4896075;29;20035;-69
2021/04/22 05:46:53;;;;;;;25.45;13.70;;;;;;;;;;4896116;29;20099;-65
2021/04/22 05:49:19;;;;;;;26.65;12.50;;;;;;;;;;4879421;29;20097;-65
2021/04/22 05:51:45;;;;;;;24.45;12.30;;;;;;;;;;4896660;29;20152;-63
2021/04/22 05:54:11;;;;;;;22.13;11.18;;;;;;;;;;4895196;29;20047;-67
2021/04/22 05:56:38;;;;;;;22.67;10.23;;;;;;;;;;4896022;29;20037;-69
2021/04/22 05:59:05;;;;;;;20.70;11.20;;;;;;;;;;4894673;29;20033;-67
2021/04/22 06:01:31;;;;;;;20.48;10.75;;;;;;;;;;4895305;29;20029;-66
2021/04/22 06:03:57;;;;;;;13.88;7.65;;;;;;;;;;4896081;29;20033;-69
2021/04/22 06:06:23;;;;;;;10.57;6.40;;;;;;;;;;4896440;29;20417;-67
2021/04/22 06:08:50;;;;;;;12.40;5.88;;;;;;;;;;4896221;29;20040;-68
2021/04/22 06:11:16;;;;;;;10.45;5.85;;;;;;;;;;4896168;29;20493;-67
2021/04/22 06:13:42;;;;;;;10.48;6.22;;;;;;;;;;4896243;29;20020;-66
2021/04/22 06:16:08;;;;;;;13.02;6.95;;;;;;;;;;4895690;29;20037;-62
2021/04/22 06:18:35;;;;;;;12.10;6.53;;;;;;;;;;4896310;29;20465;-66
2021/04/22 06:21:01;;;;;;;10.77;6.32;;;;;;;;;;4895918;29;20040;-66
2021/04/22 06:23:28;;;;;;;12.95;6.65;;;;;;;;;;4895593;29;20111;-65
2021/04/22 06:25:55;;;;;;;15.18;6.63;;;;;;;;;;4893391;29;20035;-65
2021/04/22 06:28:21;;;;;;;11.27;6.15;;;;;;;;;;4895567;29;20040;-68
2021/04/22 06:30:47;;;;;;;12.27;5.80;;;;;;;;;;4895690;29;20516;-66
2021/04/22 06:33:13;;;;;;;8.15;5.47;;;;;;;;;;4895522;29;20061;-68
2021/04/22 06:35:40;;;;;;;10.40;5.50;;;;;;;;;;4895234;29;20116;-68
2021/04/22 06:38:06;;;;;;;12.07;5.63;;;;;;;;;;4893695;29;20092;-67
2021/04/22 06:40:32;;;;;;;8.38;5.28;;;;;;;;;;4893289;29;20107;-69
2021/04/22 06:42:58;;;;;;;12.55;6.85;;;;;;;;;;4876619;29;20020;-70
2021/04/22 06:45:24;;;;;;;11.68;6.85;;;;;;;;;;4895643;29;20048;-71
2021/04/22 06:47:51;;;;;;;11.02;6.10;;;;;;;;;;4896003;29;20031;-67
2021/04/22 06:50:18;;;;;;;10.05;5.78;;;;;;;;;;4895349;29;20036;-66
2021/04/22 06:52:44;;;;;;;8.25;4.85;;;;;;;;;;4894926;29;20084;-66
2021/04/22 06:55:15;;;;;;;9.32;5.03;;;;;;;;;;4895564;29;20108;-66
2021/04/22 06:57:41;;;;;;;9.65;5.20;;;;;;;;;;4895076;29;20043;-68
2021/04/22 07:00:10;;;;;;;9.02;4.93;;;;;;;;;;4895739;29;20032;-70
2021/04/22 07:02:37;;;;;;;7.70;3.88;;;;;;;;;;4895436;29;20028;-68
2021/04/22 07:05:05;;;;;;;8.23;4.22;;;;;;;;;;4895599;29;20068;-67
2021/04/22 07:07:31;;;;;;;7.38;4.22;;;;;;;;;;4895253;29;20108;-68
2021/04/22 07:09:57;;;;;;;7.72;4.45;;;;;;;;;;4895506;29;20024;-70
2021/04/22 07:12:23;;;;;;;6.55;4.18;;;;;;;;;;4895689;29;20147;-69
2021/04/22 07:14:49;;;;;;;6.90;4.40;;;;;;;;;;4895383;29;20063;-70
2021/04/22 07:17:15;;;;;;;8.30;5.05;;;;;;;;;;4895072;29;20788;-70
2021/04/22 07:19:41;;;;;;;8.75;4.07;;;;;;;;;;4890577;29;20036;-67
2021/04/22 07:22:07;;;;;;;7.07;4.30;;;;;;;;;;4894766;29;20437;-68
2021/04/22 07:24:33;;;;;;;9.40;4.00;;;;;;;;;;4895117;29;20017;-69
2021/04/22 07:26:59;;;;;;;10.63;5.32;;;;;;;;;;4894728;29;20033;-71
2021/04/22 07:29:26;;;;;;;8.48;4.43;;;;;;;;;;4895221;29;20044;-70
2021/04/22 07:31:52;;;;;;;5.47;3.10;;;;;;;;;;4895006;29;20060;-71
2021/04/22 07:34:18;;;;;;;7.97;3.55;;;;;;;;;;4895274;29;20043;-71
2021/04/22 07:36:44;;;;;;;3.88;2.67;;;;;;;;;;4895019;29;20043;-64
2021/04/22 07:39:10;;;;;;;4.05;2.63;;;;;;;;;;4895484;29;20020;-71
2021/04/22 07:41:36;;;;;;;3.97;2.53;;;;;;;;;;4895375;29;20028;-71
2021/04/22 07:44:03;;;;;;;6.32;2.78;;;;;;;;;;4894825;29;20070;-68
2021/04/22 07:46:29;;;;;;;8.02;2.90;;;;;;;;;;4890737;29;20037;-69
2021/04/22 07:48:55;;;;;;;5.28;2.88;;;;;;;;;;4894209;29;20093;-67
2021/04/22 07:51:21;;;;;;;5.45;2.85;;;;;;;;;;4894820;29;20087;-72
2021/04/22 07:53:47;;;;;;;4.68;2.42;;;;;;;;;;4894670;29;20060;-67
2021/04/22 07:56:13;;;;;;;3.95;2.10;;;;;;;;;;4893301;29;20552;-70
2021/04/22 07:58:39;;;;;;;4.88;2.42;;;;;;;;;;4894845;29;20481;-70
2021/04/22 08:01:05;;;;;;;5.15;2.60;;;;;;;;;;4894908;29;20043;-68
2021/04/22 08:03:31;;;;;;;5.35;2.08;;;;;;;;;;4894747;29;20056;-70
2021/04/22 08:05:57;;;;;;;5.22;2.42;;;;;;;;;;4896065;29;20071;-68
2021/04/22 08:08:25;;;;;;;5.45;2.85;;;;;;;;;;4897500;29;20029;-66
2021/04/22 08:10:55;;;;;;;3.05;1.90;;;;;;;;;;4898145;29;20385;-73
2021/04/22 08:13:21;;;;;;;4.40;2.08;;;;;;;;;;4897947;29;20136;-72
2021/04/22 08:15:48;;;;;;;17.00;10.02;;;;;;;;;;4897631;29;20032;-68
2021/04/22 08:18:15;;;;;;;5.35;2.47;;;;;;;;;;4897575;29;20029;-69
2021/04/22 08:20:41;;;;;;;4.78;2.22;;;;;;;;;;4898066;29;20028;-70
2021/04/22 08:23:09;;;;;;;4.32;3.05;;;;;;;;;;4898072;29;20029;-67
2021/04/22 08:25:43;;;;;;;5.68;2.80;;;;;;;;;;4895418;29;20424;-70
2021/04/22 08:28:10;;;;;;;5.13;2.35;;;;;;;;;;4897323;29;20088;-69
2021/04/22 08:30:46;;;;;;;4.13;2.25;;;;;;;;;;4895380;29;20518;-71
2021/04/22 08:33:14;;;;;;;5.25;2.25;;;;;;;;;;4897133;29;20056;-72
2021/04/22 08:35:40;;;;;;;6.93;2.50;;;;;;;;;;4897788;29;20465;-67
2021/04/22 08:38:06;;;;;;;4.63;2.05;;;;;;;;;;4897389;29;20401;-69
2021/04/22 08:40:32;;;;;;;6.60;2.38;;;;;;;;;;4897201;29;20032;-69
2021/04/22 08:42:59;;;;;;;4.50;2.17;;;;;;;;;;4896337;29;20061;-70
2021/04/22 08:45:25;;;;;;;3.88;2.33;;;;;;;;;;4897259;29;20039;-70
2021/04/22 08:47:52;;;;;;;5.03;2.50;;;;;;;;;;4896351;29;20421;-71
2021/04/22 08:50:20;;;;;;;4.43;2.13;;;;;;;;;;4897641;29;20031;-69
2021/04/22 08:52:48;;;;;;;3.33;1.95;;;;;;;;;;4897653;29;20039;-72
2021/04/22 08:55:14;;;;;;;3.55;2.10;;;;;;;;;;4897690;29;20044;-72
2021/04/22 08:57:40;;;;;;;3.08;1.90;;;;;;;;;;4897107;29;20044;-73
2021/04/22 09:00:08;;;;;;;3.70;2.17;;;;;;;;;;4897488;29;20032;-72
2021/04/22 09:02:34;;;;;;;4.53;2.67;;;;;;;;;;4902972;29;20035;-72
2021/04/22 09:05:00;;;;;;;6.22;4.03;;;;;;;;;;4898058;29;20037;-73
2021/04/22 09:07:26;;;;;;;4.32;1.70;;;;;;;;;;4894622;29;20397;-71
2021/04/22 09:09:52;;;;;;;4.82;2.40;;;;;;;;;;4895518;29;20033;-69
2021/04/22 09:12:20;;;;;;;3.65;2.33;;;;;;;;;;4896129;29;20033;-71
2021/04/22 09:14:57;;;;;;;5.30;1.98;;;;;;;;;;4896797;29;20128;-72
2021/04/22 09:17:24;;;;;;;3.15;1.85;;;;;;;;;;4896346;29;20032;-69
2021/04/22 09:19:50;;;;;;;3.70;1.80;;;;;;;;;;4897013;29;20054;-70
2021/04/22 09:22:16;;;;;;;2.53;1.65;;;;;;;;;;4897095;29;20159;-67
2021/04/22 09:24:42;;;;;;;3.45;1.77;;;;;;;;;;4896599;29;20028;-71
2021/04/22 09:27:11;;;;;;;4.05;1.40;;;;;;;;;;4896548;29;20364;-73
2021/04/22 09:29:42;;;;;;;3.67;2.17;;;;;;;;;;4896125;29;20029;-73
2021/04/22 09:32:17;;;;;;;2.33;1.50;;;;;;;;;;4895231;29;20041;-67
2021/04/22 09:34:46;;;;;;;2.95;1.63;;;;;;;;;;4892962;29;20029;-69
2021/04/22 09:37:12;;;;;;;5.57;2.00;;;;;;;;;;4896457;29;20124;-72
2021/04/22 09:39:38;;;;;;;6.55;1.90;;;;;;;;;;4896389;29;20108;-73
2021/04/22 09:42:12;;;;;;;4.95;1.92;;;;;;;;;;4896514;29;20028;-72
2021/04/22 09:44:39;;;;;;;4.47;1.77;;;;;;;;;;4895975;29;20056;-64
2021/04/22 09:47:07;;;;;;;4.30;1.80;;;;;;;;;;4896012;29;20025;-73
2021/04/22 09:49:33;;;;;;;4.55;2.22;;;;;;;;;;4895843;29;20111;-65
2021/04/22 09:52:06;;;;;;;5.30;2.20;;;;;;;;;;4896101;29;20094;-69
2021/04/22 09:54:40;;;;;;;8.30;2.25;;;;;;;;;;4895492;29;20032;-70
2021/04/22 09:57:06;;;;;;;5.15;2.28;;;;;;;;;;4893407;29;20040;-71
2021/04/22 09:59:32;;;;;;;8.18;2.78;;;;;;;;;;4896153;29;20063;-72
2021/04/22 10:02:03;;;;;;;4.93;2.10;;;;;;;;;;4895491;29;20039;-75
2021/04/22 10:04:37;;;;;;;4.03;2.22;;;;;;;;;;4895459;29;20092;-73
2021/04/22 10:07:03;;;;;;;6.20;2.38;;;;;;;;;;4894078;29;20024;-73
2021/04/22 10:09:30;;;;;;;4.32;2.08;;;;;;;;;;4895670;29;20036;-71
2021/04/22 10:11:56;;;;;;;4.38;2.30;;;;;;;;;;4893197;29;20446;-74
2021/04/22 10:14:29;;;;;;;3.35;1.70;;;;;;;;;;4895462;29;20104;-73
2021/04/22 10:16:55;;;;;;;5.00;2.75;;;;;;;;;;4894070;29;20120;-66
2021/04/22 10:19:21;;;;;;;5.15;1.80;;;;;;;;;;4894792;29;20025;-69
2021/04/22 10:21:47;;;;;;;5.82;2.00;;;;;;;;;;4895871;29;20028;-71
2021/04/22 10:24:15;;;;;;;3.70;2.13;;;;;;;;;;4895727;29;20036;-71
2021/04/22 10:26:45;;;;;;;4.60;1.88;;;;;;;;;;4895412;29;20457;-71
2021/04/22 10:29:11;;;;;;;5.22;2.10;;;;;;;;;;4893692;29;20032;-73
2021/04/22 10:31:38;;;;;;;6.47;2.00;;;;;;;;;;4894670;29;20024;-73
2021/04/22 10:34:08;;;;;;;5.25;2.28;;;;;;;;;;4894752;29;20048;-71
2021/04/22 10:36:34;;;;;;;3.50;1.88;;;;;;;;;;4895953;29;20032;-73
2021/04/22 10:39:01;;;;;;;4.15;2.20;;;;;;;;;;4891939;29;20497;-74
2021/04/22 10:41:31;;;;;;;5.25;1.90;;;;;;;;;;4895302;29;20687;-77
2021/04/22 10:43:58;;;;;;;7.15;1.83;;;;;;;;;;4893379;29;20016;-67
2021/04/22 10:46:24;;;;;;;3.47;2.38;;;;;;;;;;4895100;29;20028;-72
2021/04/22 10:48:50;;;;;;;4.65;2.00;;;;;;;;;;4894922;29;20020;-75
2021/04/22 10:51:17;;;;;;;4.85;2.30;;;;;;;;;;4893738;29;20389;-74
2021/04/22 10:53:43;;;;;;;5.05;2.33;;;;;;;;;;4893152;29;20035;-73
2021/04/22 10:56:09;;;;;;;5.00;2.65;;;;;;;;;;4895438;29;20048;-70
2021/04/22 10:58:43;;;;;;;4.75;2.15;;;;;;;;;;4892904;29;20396;-68
2021/04/22 11:01:13;;;;;;;5.10;2.70;;;;;;;;;;4894879;29;20048;-70
2021/04/22 11:03:40;;;;;;;3.22;1.95;;;;;;;;;;4894868;29;20134;-73
2021/04/22 11:06:17;;;;;;;4.97;2.13;;;;;;;;;;4894858;29;20036;-72
2021/04/22 11:08:45;;;;;;;3.80;2.60;;;;;;;;;;4892897;29;20036;-72
2021/04/22 11:11:16;;;;;;;3.72;2.20;;;;;;;;;;4895337;29;20115;-67
2021/04/22 11:13:42;;;;;;;3.70;2.10;;;;;;;;;;4895335;29;20152;-72
2021/04/22 11:16:09;;;;;;;3.88;2.10;;;;;;;;;;4894863;29;20068;-69
2021/04/22 11:18:35;;;;;;;3.28;2.00;;;;;;;;;;4895261;29;20397;-71
2021/04/22 11:21:01;;;;;;;3.55;1.77;;;;;;;;;;4895241;29;20037;-69
2021/04/22 11:23:29;;;;;;;7.22;2.13;;;;;;;;;;4895190;29;20021;-69
2021/04/22 11:25:57;;;;;;;5.05;1.88;;;;;;;;;;4895219;29;20477;-71
2021/04/22 11:28:32;;;;;;;3.50;2.13;;;;;;;;;;4894494;29;20389;-72
2021/04/22 11:31:17;;;;;;;5.45;2.35;;;;;;;;;;4895112;29;20116;-73
2021/04/22 11:33:45;;;;;;;4.22;2.63;;;;;;;;;;4894674;29;20067;-72
2021/04/22 11:36:19;;;;;;;4.97;2.40;;;;;;;;;;4893981;29;20040;-71
2021/04/22 11:38:51;;;;;;;4.80;2.03;;;;;;;;;;4894757;29;20063;-72
2021/04/22 11:41:17;;;;;;;3.08;2.00;;;;;;;;;;4897139;29;20028;-70
2021/04/22 11:43:43;;;;;;;3.70;2.00;;;;;;;;;;4898810;29;20036;-71
2021/04/22 11:46:09;;;;;;;4.70;2.17;;;;;;;;;;4898281;29;20035;-70
2021/04/22 11:48:42;;;;;;;4.35;2.05;;;;;;;;;;4905225;29;20047;-71
2021/04/22 11:51:09;;;;;;;4.07;2.15;;;;;;;;;;4898525;29;20027;-70
2021/04/22 11:53:38;;;;;;;3.95;1.90;;;;;;;;;;4899050;29;20031;-67
2021/04/22 11:56:06;;;;;;;3.60;1.92;;;;;;;;;;4898772;29;20139;-67
2021/04/22 11:58:33;;;;;;;3.95;2.08;;;;;;;;;;4897861;29;20023;-68
2021/04/22 12:01:02;;;;;;;2.53;1.80;;;;;;;;;;4897815;29;20032;-69
2021/04/22 12:03:35;;;;;;;3.58;1.90;;;;;;;;;;4895092;29;20064;-70
2021/04/22 12:06:05;;;;;;;2.65;1.65;;;;;;;;;;4898491;29;20021;-72
2021/04/22 12:08:32;;;;;;;3.13;2.00;;;;;;;;;;4896199;29;20020;-65
2021/04/22 12:10:59;;;;;;;4.50;2.10;;;;;;;;;;4897721;29;20033;-72
2021/04/22 12:13:27;;;;;;;6.18;1.90;;;;;;;;;;4897262;29;20028;-74
2021/04/22 12:16:00;;;;;;;6.13;2.08;;;;;;;;;;4897449;29;20124;-75
2021/04/22 12:18:28;;;;;;;7.47;2.17;;;;;;;;;;4896801;29;20039;-80
2021/04/22 12:21:14;;;;;;;4.05;2.08;;;;;;;;;;4898004;29;20516;-73
2021/04/22 12:23:51;;;;;;;4.43;2.00;;;;;;;;;;4896724;29;20036;-74
2021/04/22 12:26:24;;;;;;;4.28;1.92;;;;;;;;;;4895781;29;20104;-73
2021/04/22 12:29:01;;;;;;;4.15;1.90;;;;;;;;;;4894998;29;20027;-71
2021/04/22 12:31:27;;;;;;;3.55;1.80;;;;;;;;;;4897490;29;20032;-71
2021/04/22 12:33:53;;;;;;;3.92;1.55;;;;;;;;;;4897581;29;20534;-76
2021/04/22 12:36:19;;;;;;;5.35;1.70;;;;;;;;;;4897224;29;20040;-80
2021/04/22 12:38:45;;;;;;;3.20;1.55;;;;;;;;;;4897223;29;20103;-71
2021/04/22 12:41:12;;;;;;;3.03;2.00;;;;;;;;;;4897061;29;20029;-70
2021/04/22 12:43:40;;;;;;;2.83;1.98;;;;;;;;;;4897067;29;20505;-74
2021/04/22 12:46:08;;;;;;;4.95;2.80;;;;;;;;;;4897113;29;20044;-77
2021/04/22 12:48:35;;;;;;;4.72;1.65;;;;;;;;;;4896754;29;20145;-70
2021/04/22 12:51:01;;;;;;;7.07;2.10;;;;;;;;;;4899223;29;20059;-74
2021/04/22 12:53:29;;;;;;;4.43;1.58;;;;;;;;;;4897185;29;20028;-73
2021/04/22 12:56:00;;;;;;;2.40;1.60;;;;;;;;;;4894597;29;20033;-69
2021/04/22 12:58:38;;;;;;;5.43;1.58;;;;;;;;;;4897307;29;20020;-76
2021/04/22 13:01:08;;;;;;;3.58;1.42;;;;;;;;;;4895094;29;20032;-69
2021/04/22 13:03:35;;;;;;;3.47;1.55;;;;;;;;;;4894443;29;20025;-71
2021/04/22 13:06:04;;;;;;;2.80;1.85;;;;;;;;;;4896494;29;20030;-77
2021/04/22 13:08:30;;;;;;;3.20;1.80;;;;;;;;;;4897123;29;20027;-78
2021/04/22 13:11:01;;;;;;;3.83;1.85;;;;;;;;;;4897392;29;20079;-77
2021/04/22 13:13:38;;;;;;;3.63;1.90;;;;;;;;;;4897018;29;20017;-83
2021/04/22 13:16:09;;;;;;;6.13;2.10;;;;;;;;;;4895909;29;20033;-73
2021/04/22 13:18:36;;;;;;;2.45;1.50;;;;;;;;;;4894478;29;20124;-78
2021/04/22 13:21:03;;;;;;;2.85;1.63;;;;;;;;;;4897173;29;20031;-78
2021/04/22 13:23:32;;;;;;;2.08;1.50;;;;;;;;;;4896720;29;20389;-73
2021/04/22 13:25:59;;;;;;;2.83;1.60;;;;;;;;;;4896698;29;20044;-74
2021/04/22 13:28:25;;;;;;;3.17;1.70;;;;;;;;;;4896600;29;20025;-72
2021/04/22 13:30:52;;;;;;;2.53;1.60;;;;;;;;;;4896561;29;20027;-71
2021/04/22 13:33:22;;;;;;;4.65;2.00;;;;;;;;;;4896080;29;20056;-72
2021/04/22 13:35:49;;;;;;;3.05;1.40;;;;;;;;;;4896061;29;20108;-73
2021/04/22 13:38:19;;;;;;;2.75;1.50;;;;;;;;;;4895719;29;20028;-71
2021/04/22 13:40:46;;;;;;;2.60;1.58;;;;;;;;;;4894599;29;20437;-68
2021/04/22 13:43:12;;;;;;;3.92;1.40;;;;;;;;;;4895527;29;20116;-70
2021/04/22 13:45:38;;;;;;;4.80;1.70;;;;;;;;;;4896158;29;20495;-65
2021/04/22 13:48:09;;;;;;;3.28;1.50;;;;;;;;;;4895680;29;20493;-66
2021/04/22 13:50:35;;;;;;;3.47;1.70;;;;;;;;;;4896177;29;20101;-67
2021/04/22 13:53:05;;;;;;;3.70;1.60;;;;;;;;;;4896308;29;20043;-67
2021/04/22 13:55:54;;;;;;;2.30;1.30;;;;;;;;;;4896162;29;20062;-76
2021/04/22 13:58:28;;;;;;;4.15;1.85;;;;;;;;;;4895164;29;20032;-72
2021/04/22 14:00:54;;;;;;;5.20;2.10;;;;;;;;;;4895944;29;20031;-73
2021/04/22 14:03:20;;;;;;;2.45;1.88;;;;;;;;;;4894926;29;20080;-74
2021/04/22 14:05:46;;;;;;;2.88;1.50;;;;;;;;;;4895255;29;20088;-77
2021/04/22 14:08:12;;;;;;;3.58;1.42;;;;;;;;;;4894444;29;20555;-77
2021/04/22 14:10:40;;;;;;;3.28;1.40;;;;;;;;;;4893891;29;20051;-73
2021/04/22 14:13:20;;;;;;;2.22;1.40;;;;;;;;;;4893149;29;20084;-76
2021/04/22 14:15:46;;;;;;;5.38;1.40;;;;;;;;;;4894421;29;20062;-76
2021/04/22 14:18:12;;;;;;;1.98;1.33;;;;;;;;;;4895320;29;20032;-74
2021/04/22 14:20:38;;;;;;;2.85;1.40;;;;;;;;;;4895211;29;20036;-72
2021/04/22 14:23:05;;;;;;;4.55;1.88;;;;;;;;;;4895712;29;20337;-79
2021/04/22 14:25:31;;;;;;;3.88;1.73;;;;;;;;;;4894150;29;20084;-72
2021/04/22 14:27:57;;;;;;;2.95;1.70;;;;;;;;;;4895445;29;20067;-73
2021/04/22 14:30:23;;;;;;;5.07;1.95;;;;;;;;;;4895284;29;20039;-75
2021/04/22 14:32:49;;;;;;;3.25;1.40;;;;;;;;;;4894756;29;20060;-73
2021/04/22 14:35:16;;;;;;;4.75;1.63;;;;;;;;;;4895169;29;20119;-73